Terminal Aerodrome Forecast
Issued by NWS Rapid City, SD

Home | Current Version | Previous Version | Graphics & Text | Print | Product List | Glossary On
Versions: 1 2 3 4 5 6 7 8 9 10 11 12 13 14 15 16 17 18 19 20 21 22
000
FTUS43 KUNR 280900 AAB
TAFRAP
TAF AMD
KRAP 280928Z 2809/2906 VRB05KT P6SM SCT003 BKN100
      TEMPO 2810/2814 BKN003
     FM281500 01008KT P6SM BKN100=

USA.gov is the U.S. government's official web portal to all federal, state and local government web resources and services.